Time;durP1;ratioP1;P1;durP2;ratioP2;P2;SDS_P1;SDS_P2;PMS_P1;PMS_P2;Temp;Humidity;BMP_temperature;BMP_pressure;BME280_temperature;BME280_humidity;BME280_pressure;Samples;Min_cycle;Max_cycle;Signal;HPM_P1;HPM_P2
2023/12/29 00:01:54;;;;;;;0.10;0.10;;;;;;;0.89;82.46;99606.38;5043837;28;20069;-70
2023/12/29 00:04:21;;;;;;;0.10;0.10;;;;;;;0.89;82.52;99601.22;5040686;28;20052;-71
2023/12/29 00:06:48;;;;;;;0.20;0.10;;;;;;;0.89;82.10;99597.81;5039655;28;20076;-70
2023/12/29 00:09:15;;;;;;;0.15;0.00;;;;;;;0.89;82.17;99600.38;5041378;28;20128;-70
2023/12/29 00:11:42;;;;;;;0.00;0.00;;;;;;;0.89;82.52;99598.66;5036718;28;20843;-70
2023/12/29 00:14:11;;;;;;;0.20;0.00;;;;;;;0.89;82.05;99582.34;5039021;28;20072;-70
2023/12/29 00:16:38;;;;;;;0.20;0.10;;;;;;;0.89;82.13;99582.34;5039220;28;20126;-71
2023/12/29 00:19:05;;;;;;;0.17;0.03;;;;;;;0.88;82.43;99578.94;5038107;28;20045;-71
2023/12/29 00:21:32;;;;;;;0.10;0.08;;;;;;;0.89;82.40;99578.06;5041041;28;20041;-71
2023/12/29 00:23:59;;;;;;;0.00;0.00;;;;;;;0.88;82.38;99566.06;5031927;28;20136;-70
2023/12/29 00:26:25;;;;;;;0.20;0.10;;;;;;;0.88;81.92;99566.06;5039865;28;20080;-70
2023/12/29 00:28:52;;;;;;;0.10;0.00;;;;;;;0.87;82.25;99564.31;5041682;28;20376;-70
2023/12/29 00:31:21;;;;;;;0.00;0.00;;;;;;;0.87;81.99;99554.03;5036075;28;20128;-70
2023/12/29 00:33:51;;;;;;;1.02;0.80;;;;;;;0.87;81.85;99548.03;5037606;28;20128;-70
2023/12/29 00:36:19;;;;;;;0.40;0.00;;;;;;;0.86;82.07;99539.44;5039927;28;20456;-70
2023/12/29 00:38:46;;;;;;;1.38;0.00;;;;;;;0.88;82.33;99545.47;5039813;28;20130;-70
2023/12/29 00:41:13;;;;;;;0.57;0.00;;;;;;;0.87;81.95;99543.72;5038739;28;20677;-70
2023/12/29 00:43:40;;;;;;;0.70;0.00;;;;;;;0.87;82.12;99537.72;5037995;28;20080;-70
2023/12/29 00:46:08;;;;;;;0.10;0.00;;;;;;;0.88;81.84;99539.41;5036417;28;20465;-71
2023/12/29 00:48:36;;;;;;;0.13;0.00;;;;;;;0.88;81.96;99526.56;5042449;28;20080;-71
2023/12/29 00:51:03;;;;;;;0.45;0.00;;;;;;;0.88;81.88;99530.00;5038440;28;20157;-70
2023/12/29 00:53:32;;;;;;;0.30;0.00;;;;;;;0.88;82.06;99513.66;5036101;28;20077;-70
2023/12/29 00:55:59;;;;;;;0.00;0.00;;;;;;;0.88;82.00;99504.25;5036037;28;20049;-70
2023/12/29 00:58:26;;;;;;;0.25;0.10;;;;;;;0.84;82.07;99501.69;5041498;28;20144;-70
2023/12/29 01:00:53;;;;;;;0.10;0.10;;;;;;;0.88;81.61;99524.84;5041619;28;20522;-73
2023/12/29 01:03:20;;;;;;;0.50;0.10;;;;;;;0.88;81.63;99504.25;5036574;28;20153;-74
2023/12/29 01:05:48;;;;;;;0.20;0.00;;;;;;;0.88;81.73;99486.22;5038410;28;20095;-74
2023/12/29 01:08:15;;;;;;;0.22;0.10;;;;;;;0.88;81.78;99506.84;5037502;28;21075;-74
2023/12/29 01:10:42;;;;;;;1.65;0.10;;;;;;;0.87;82.18;99497.38;5040336;28;20126;-77
2023/12/29 01:13:09;;;;;;;0.63;0.10;;;;;;;0.88;81.68;99511.97;5047785;28;20076;-78
2023/12/29 01:15:36;;;;;;;0.13;0.10;;;;;;;0.88;81.81;99503.38;5050047;28;20515;-78
2023/12/29 01:18:03;;;;;;;0.52;0.10;;;;;;;0.87;81.64;99499.94;5042749;28;20079;-78
2023/12/29 01:20:30;;;;;;;1.98;0.10;;;;;;;0.87;81.58;99488.78;5046930;28;20080;-78
2023/12/29 01:22:58;;;;;;;1.00;0.10;;;;;;;0.87;81.50;99492.22;5041392;28;20530;-78
2023/12/29 01:25:25;;;;;;;0.20;0.15;;;;;;;0.87;82.10;99479.34;5044912;28;20057;-78
2023/12/29 01:27:52;;;;;;;0.40;0.20;;;;;;;0.87;81.40;99476.78;5041733;28;20037;-78
2023/12/29 01:30:19;;;;;;;1.20;0.20;;;;;;;0.87;81.79;99474.19;5045822;28;20128;-78
2023/12/29 01:32:46;;;;;;;0.40;0.10;;;;;;;0.86;81.56;99464.78;5048137;28;20483;-78
2023/12/29 01:35:13;;;;;;;0.20;0.10;;;;;;;0.86;81.56;99454.47;5049453;28;20076;-78
2023/12/29 01:37:39;;;;;;;0.30;0.10;;;;;;;0.86;81.96;99457.06;5050783;28;20076;-78
2023/12/29 01:40:09;;;;;;;0.20;0.10;;;;;;;0.87;81.57;99451.03;5049198;28;20491;-78
2023/12/29 01:42:36;;;;;;;0.10;0.10;;;;;;;0.87;81.84;99453.59;5040239;28;20491;-78
2023/12/29 01:45:03;;;;;;;1.13;0.20;;;;;;;0.87;81.96;99456.19;5045047;28;20831;-78
2023/12/29 01:47:31;;;;;;;0.10;0.10;;;;;;;0.87;81.99;99456.19;5049485;28;20483;-78
2023/12/29 01:49:59;;;;;;;0.10;0.10;;;;;;;0.87;81.99;99466.47;5048124;28;20490;-77
2023/12/29 01:52:26;;;;;;;0.10;0.10;;;;;;;0.87;81.86;99456.19;5048680;28;20194;-77
2023/12/29 01:54:54;;;;;;;0.40;0.10;;;;;;;0.86;81.56;99462.19;5048418;28;20123;-78
2023/12/29 01:57:23;;;;;;;0.20;0.13;;;;;;;0.85;81.94;99465.66;5047946;28;20041;-78
2023/12/29 01:59:50;;;;;;;3.15;0.98;;;;;;;0.85;81.96;99472.50;5048823;28;20072;-78
2023/12/29 02:02:18;;;;;;;0.25;0.10;;;;;;;0.85;81.93;99468.22;5042439;28;20101;-78
2023/12/29 02:04:46;;;;;;;2.05;0.10;;;;;;;0.85;82.03;99452.78;5046532;28;20773;-77
2023/12/29 02:07:13;;;;;;;1.17;0.20;;;;;;;0.85;81.52;99442.47;5045740;28;20479;-78
2023/12/29 02:09:40;;;;;;;0.20;0.20;;;;;;;0.85;81.71;99434.75;5049716;28;20797;-77
2023/12/29 02:12:08;;;;;;;4.53;0.70;;;;;;;0.80;81.52;99424.47;5041502;28;20534;-70
2023/12/29 02:14:36;;;;;;;0.52;0.20;;;;;;;0.84;81.96;99422.72;5037215;28;20136;-70
2023/12/29 02:17:22;;;;;;;1.67;0.20;;;;;;;0.86;81.67;99420.16;5035521;28;20812;-70
2023/12/29 02:19:50;;;;;;;1.05;0.15;;;;;;;0.85;81.62;99410.69;5039518;28;20145;-70
2023/12/29 02:22:17;;;;;;;0.25;0.20;;;;;;;0.85;81.90;99416.72;5047932;28;20073;-77
2023/12/29 02:24:49;;;;;;;0.98;0.20;;;;;;;0.86;81.82;99421.00;5048821;28;20095;-78
2023/12/29 02:27:26;;;;;;;0.35;0.20;;;;;;;0.86;81.91;99409.84;5044358;28;20156;-78
2023/12/29 02:30:05;;;;;;;2.67;0.20;;;;;;;0.87;81.63;99406.41;5046026;28;20428;-78
2023/12/29 02:32:34;;;;;;;0.93;0.20;;;;;;;0.86;81.61;99397.81;5048334;28;20081;-78
2023/12/29 02:35:03;;;;;;;1.58;0.30;;;;;;;0.86;81.74;99387.53;5047843;28;20495;-78
2023/12/29 02:37:32;;;;;;;0.63;0.30;;;;;;;0.87;81.93;99381.50;5052879;28;20080;-78
2023/12/29 02:40:00;;;;;;;2.25;0.22;;;;;;;0.86;81.90;99387.53;5050667;28;20080;-78
2023/12/29 02:42:27;;;;;;;2.88;0.40;;;;;;;0.87;82.06;99393.53;5050969;28;20087;-77
2023/12/29 02:44:54;;;;;;;0.30;0.20;;;;;;;0.86;81.97;99390.09;5051961;28;20094;-77
2023/12/29 02:47:22;;;;;;;0.68;0.20;;;;;;;0.85;81.68;99385.81;5052383;28;20072;-77
2023/12/29 02:49:50;;;;;;;0.60;0.47;;;;;;;0.86;81.89;99384.94;5051594;28;20052;-78
2023/12/29 02:52:17;;;;;;;0.32;0.20;;;;;;;0.87;81.76;99372.94;5049872;28;20103;-78
2023/12/29 02:54:43;;;;;;;0.38;0.20;;;;;;;0.87;81.75;99360.06;5049296;28;20511;-77
2023/12/29 02:57:12;;;;;;;0.60;0.30;;;;;;;0.86;82.11;99366.06;5040847;28;20075;-78
2023/12/29 02:59:39;;;;;;;0.55;0.20;;;;;;;0.85;82.02;99349.78;5049799;28;20073;-77
2023/12/29 03:02:06;;;;;;;1.23;0.20;;;;;;;0.86;81.73;99350.63;5040454;28;20073;-77
2023/12/29 03:04:33;;;;;;;1.00;0.20;;;;;;;0.84;82.01;99348.03;5055556;28;20132;-78
2023/12/29 03:06:59;;;;;;;0.60;0.45;;;;;;;0.86;82.03;99348.91;5047315;28;20155;-77
2023/12/29 03:09:26;;;;;;;1.15;0.20;;;;;;;0.86;81.83;99340.34;5045545;28;20084;-78
2023/12/29 03:11:53;;;;;;;0.30;0.20;;;;;;;0.86;81.67;99328.31;5044870;28;20503;-78
2023/12/29 03:14:21;;;;;;;0.70;0.20;;;;;;;0.88;82.00;99324.00;5047136;28;20091;-78
2023/12/29 03:16:48;;;;;;;3.35;0.20;;;;;;;0.89;81.86;99324.84;5047170;28;20076;-78
2023/12/29 03:19:15;;;;;;;1.85;0.20;;;;;;;0.89;81.73;99310.25;5048207;28;20415;-78
2023/12/29 03:21:42;;;;;;;0.98;0.20;;;;;;;0.89;82.04;99301.69;5047607;28;20072;-70
2023/12/29 03:24:09;;;;;;;1.60;0.20;;;;;;;0.87;82.04;99293.97;5041584;28;20778;-70
2023/12/29 03:26:36;;;;;;;0.77;0.20;;;;;;;0.88;82.15;99290.53;5035410;28;20141;-70
2023/12/29 03:29:03;;;;;;;0.50;0.20;;;;;;;0.88;82.10;99287.06;5035661;28;20566;-70
2023/12/29 03:31:31;;;;;;;1.65;0.25;;;;;;;0.89;82.14;99291.38;5042982;28;20072;-75
2023/12/29 03:33:58;;;;;;;0.28;0.20;;;;;;;0.83;81.75;99265.69;5041050;28;20080;-75
2023/12/29 03:36:25;;;;;;;1.25;0.20;;;;;;;0.88;82.15;99271.63;5046156;28;20084;-76
2023/12/29 03:38:52;;;;;;;1.45;0.20;;;;;;;0.85;82.11;99264.81;5037155;28;21627;-76
2023/12/29 03:41:19;;;;;;;1.45;0.20;;;;;;;0.86;82.13;99257.94;5039636;28;20073;-75
2023/12/29 03:43:46;;;;;;;2.92;0.22;;;;;;;0.89;82.12;99258.75;5040985;28;20041;-76
2023/12/29 03:46:18;;;;;;;0.38;0.28;;;;;;;0.87;81.73;99250.19;5043716;28;20103;-76
2023/12/29 03:48:47;;;;;;;1.52;0.20;;;;;;;0.86;82.19;99237.34;5039776;28;20050;-76
2023/12/29 03:51:14;;;;;;;1.17;0.10;;;;;;;0.88;82.09;99243.31;5043158;28;20130;-76
2023/12/29 03:53:41;;;;;;;0.70;0.20;;;;;;;0.91;81.98;99240.75;5042544;28;20068;-76
2023/12/29 03:56:09;;;;;;;0.50;0.20;;;;;;;0.91;82.05;99240.75;5045367;28;20080;-75
2023/12/29 03:58:36;;;;;;;0.85;0.20;;;;;;;0.91;82.23;99236.44;5041138;28;20128;-75
2023/12/29 04:01:03;;;;;;;1.10;0.93;;;;;;;0.91;82.17;99231.28;5038352;28;20208;-76
2023/12/29 04:03:30;;;;;;;0.50;0.20;;;;;;;0.91;81.85;99226.13;5041571;28;20060;-76
2023/12/29 04:05:59;;;;;;;2.72;0.20;;;;;;;0.89;81.73;99216.72;5040161;28;20136;-76
2023/12/29 04:08:25;;;;;;;1.00;0.30;;;;;;;0.87;82.29;99214.13;5042693;28;20072;-75
2023/12/29 04:10:52;;;;;;;1.05;0.22;;;;;;;0.91;81.94;99217.56;5039663;28;20092;-76
2023/12/29 04:13:19;;;;;;;1.27;0.20;;;;;;;0.90;82.13;99208.97;5040620;28;20080;-75
2023/12/29 04:15:46;;;;;;;3.65;0.40;;;;;;;0.90;82.10;99205.53;5043615;28;20539;-76
2023/12/29 04:18:13;;;;;;;0.57;0.20;;;;;;;0.88;82.29;99195.25;5039438;28;20089;-76
2023/12/29 04:20:40;;;;;;;5.78;0.40;;;;;;;0.92;82.03;99202.09;5036955;28;20546;-76
2023/12/29 04:23:09;;;;;;;3.03;0.30;;;;;;;0.93;81.95;99197.78;5038141;28;20095;-75
2023/12/29 04:25:36;;;;;;;1.73;0.22;;;;;;;0.92;82.14;99191.78;5037863;28;20044;-76
2023/12/29 04:28:03;;;;;;;4.35;0.32;;;;;;;0.89;81.98;99176.38;5038397;28;20114;-75
2023/12/29 04:30:30;;;;;;;0.88;0.30;;;;;;;0.95;82.31;99175.47;5043256;28;20071;-70
2023/12/29 04:32:57;;;;;;;2.55;0.40;;;;;;;0.94;82.41;99166.03;5038896;28;20136;-77
2023/12/29 04:35:23;;;;;;;1.40;0.20;;;;;;;0.96;82.31;99166.84;5043004;28;20091;-78
2023/12/29 04:37:50;;;;;;;0.63;0.40;;;;;;;0.95;82.49;99160.84;5041852;28;20124;-78
2023/12/29 04:40:19;;;;;;;0.73;0.57;;;;;;;0.96;82.36;99154.84;5035371;28;20041;-78
2023/12/29 04:42:46;;;;;;;1.95;0.40;;;;;;;0.95;82.03;99147.97;5041668;28;20087;-78
2023/12/29 04:45:13;;;;;;;0.90;0.30;;;;;;;0.95;81.94;99140.25;5042587;28;20131;-78
2023/12/29 04:47:40;;;;;;;3.97;0.20;;;;;;;0.95;82.22;99135.09;5045497;28;20045;-78
2023/12/29 04:50:08;;;;;;;1.25;0.22;;;;;;;0.94;82.31;99127.41;5040245;28;20124;-77
2023/12/29 04:52:35;;;;;;;7.20;0.55;;;;;;;0.94;82.50;99119.69;5042253;28;20128;-78
2023/12/29 04:55:02;;;;;;;2.20;0.20;;;;;;;0.94;82.14;99117.97;5044342;28;20084;-77
2023/12/29 04:57:30;;;;;;;1.05;0.22;;;;;;;0.94;82.67;99107.66;5039878;28;20077;-78
2023/12/29 04:59:57;;;;;;;0.80;0.20;;;;;;;0.96;82.07;99099.91;5049790;28;20104;-78
2023/12/29 05:02:24;;;;;;;0.60;0.20;;;;;;;0.95;82.45;99088.75;5045359;28;20574;-78
2023/12/29 05:04:51;;;;;;;2.20;0.20;;;;;;;0.94;82.76;99087.06;5049592;28;20140;-78
2023/12/29 05:07:18;;;;;;;1.05;0.20;;;;;;;0.93;82.66;99076.75;5047532;28;20099;-78
2023/12/29 05:09:45;;;;;;;1.50;0.20;;;;;;;0.92;82.81;99083.63;5046109;28;20055;-77
2023/12/29 05:12:12;;;;;;;5.05;0.22;;;;;;;0.94;82.35;99070.75;5040304;28;20471;-78
2023/12/29 05:14:40;;;;;;;4.60;0.20;;;;;;;0.94;82.52;99055.31;5049231;28;20143;-78
2023/12/29 05:17:08;;;;;;;4.70;0.30;;;;;;;0.91;83.00;99042.47;5049999;28;20045;-78
2023/12/29 05:19:35;;;;;;;3.38;0.20;;;;;;;0.94;82.55;99045.84;5045787;28;20052;-78
2023/12/29 05:22:02;;;;;;;2.58;0.17;;;;;;;0.93;82.72;99044.13;5042929;28;20069;-78
2023/12/29 05:24:29;;;;;;;6.63;0.20;;;;;;;0.94;82.90;99034.72;5051136;28;20553;-77
2023/12/29 05:26:56;;;;;;;0.57;0.10;;;;;;;0.93;82.61;99020.97;5052287;28;20467;-78
2023/12/29 05:29:23;;;;;;;3.33;0.45;;;;;;;0.95;82.99;99016.66;5041256;28;20080;-78
2023/12/29 05:31:51;;;;;;;2.42;0.20;;;;;;;0.96;82.87;99012.34;5050434;28;20076;-78
2023/12/29 05:34:18;;;;;;;4.90;0.20;;;;;;;0.84;83.13;98982.44;5035258;28;20088;-78
2023/12/29 05:36:45;;;;;;;4.32;0.20;;;;;;;0.95;83.09;99002.94;5043880;28;20443;-78
2023/12/29 05:39:12;;;;;;;5.78;0.10;;;;;;;0.95;83.31;98998.63;5043898;28;20091;-78
2023/12/29 05:41:39;;;;;;;5.88;0.77;;;;;;;0.96;83.14;99002.03;5046520;28;20388;-79
2023/12/29 05:44:05;;;;;;;4.22;0.20;;;;;;;0.98;83.21;99001.16;5045166;28;20582;-79
2023/12/29 05:46:32;;;;;;;2.88;0.30;;;;;;;0.99;83.13;98997.72;5041489;28;20072;-79
2023/12/29 05:49:01;;;;;;;3.88;0.13;;;;;;;0.98;83.78;98988.28;5049623;28;20065;-79
2023/12/29 05:51:28;;;;;;;5.88;0.20;;;;;;;1.01;83.63;98980.50;5045289;28;20053;-76
2023/12/29 05:53:55;;;;;;;2.17;0.65;;;;;;;1.05;83.52;98976.19;5042285;28;20091;-76
2023/12/29 05:56:22;;;;;;;3.97;0.30;;;;;;;1.03;83.43;98960.75;5044741;28;20049;-75
2023/12/29 05:58:49;;;;;;;5.18;0.85;;;;;;;1.02;83.58;98947.88;5043129;28;20183;-76
2023/12/29 06:01:16;;;;;;;6.65;0.95;;;;;;;1.10;83.74;98952.94;5042826;28;20161;-76
2023/12/29 06:03:43;;;;;;;2.60;0.35;;;;;;;1.09;83.84;98941.78;5043588;28;20488;-75
2023/12/29 06:06:11;;;;;;;4.45;0.10;;;;;;;1.12;83.87;98946.06;5041231;28;20541;-76
2023/12/29 06:08:38;;;;;;;3.15;0.20;;;;;;;1.14;83.97;98941.75;5040359;28;20084;-76
2023/12/29 06:11:06;;;;;;;4.97;0.20;;;;;;;1.14;84.04;98934.03;5039475;28;20091;-76
2023/12/29 06:13:33;;;;;;;2.65;0.17;;;;;;;1.14;84.25;98926.28;5040716;28;20136;-76
2023/12/29 06:16:00;;;;;;;2.92;0.20;;;;;;;1.18;84.14;98930.50;5038388;28;20049;-75
2023/12/29 06:18:27;;;;;;;1.55;0.20;;;;;;;1.19;84.01;98917.63;5046225;28;20072;-76
2023/12/29 06:20:54;;;;;;;2.40;0.20;;;;;;;1.23;84.31;98915.84;5042302;28;20045;-75
2023/12/29 06:23:22;;;;;;;2.38;0.30;;;;;;;1.21;84.29;98908.13;5039657;28;20077;-76
2023/12/29 06:25:49;;;;;;;4.68;0.20;;;;;;;1.23;83.97;98902.97;5045223;28;20058;-76
2023/12/29 06:28:16;;;;;;;2.75;0.20;;;;;;;1.27;84.30;98909.75;5047177;28;20487;-76
2023/12/29 06:30:43;;;;;;;2.70;0.25;;;;;;;1.25;84.21;98906.38;5042931;28;20103;-76
2023/12/29 06:33:10;;;;;;;0.40;0.10;;;;;;;1.29;84.42;98908.03;5043007;28;20087;-76
2023/12/29 06:35:38;;;;;;;2.35;0.10;;;;;;;1.31;84.23;98911.44;5042936;28;20052;-76
2023/12/29 06:38:05;;;;;;;0.60;0.10;;;;;;;1.33;83.74;98913.97;5042924;28;20045;-76
2023/12/29 06:40:34;;;;;;;2.28;0.00;;;;;;;1.34;84.11;98907.97;5041552;28;20053;-76
2023/12/29 06:43:01;;;;;;;4.05;0.38;;;;;;;1.33;83.83;98898.50;5042818;28;20045;-75
2023/12/29 06:45:28;;;;;;;6.93;0.10;;;;;;;1.34;83.91;98901.09;5043453;28;20046;-76
2023/12/29 06:47:54;;;;;;;4.18;0.10;;;;;;;1.35;83.70;98902.78;5044730;28;20041;-76
2023/12/29 06:50:22;;;;;;;2.60;0.10;;;;;;;1.37;84.04;98902.75;5047289;28;20045;-78
2023/12/29 06:52:49;;;;;;;1.45;0.10;;;;;;;1.37;83.67;98895.88;5047164;28;20041;-79
2023/12/29 06:55:16;;;;;;;2.75;0.15;;;;;;;1.32;83.98;98884.78;5051909;28;20541;-78
2023/12/29 06:57:44;;;;;;;3.17;0.10;;;;;;;1.38;84.14;98892.41;5047549;28;20537;-79
2023/12/29 07:00:12;;;;;;;1.98;0.10;;;;;;;1.40;84.19;98885.53;5050936;28;20120;-77
2023/12/29 07:02:40;;;;;;;1.50;0.05;;;;;;;1.40;84.17;98893.25;5049640;28;20548;-77
2023/12/29 07:05:07;;;;;;;0.70;0.10;;;;;;;1.41;84.14;98892.38;5038939;28;20489;-77
2023/12/29 07:07:34;;;;;;;0.43;0.05;;;;;;;1.43;84.29;98889.78;5046351;28;20111;-77
2023/12/29 07:10:03;;;;;;;3.90;0.10;;;;;;;1.44;84.32;98891.47;5045145;28;20483;-77
2023/12/29 07:12:30;;;;;;;2.83;1.10;;;;;;;1.45;83.88;98894.03;5042035;28;20048;-70
2023/12/29 07:14:59;;;;;;;1.38;0.10;;;;;;;1.46;84.36;98892.31;5042308;28;20037;-70
2023/12/29 07:17:26;;;;;;;2.28;0.20;;;;;;;1.47;83.91;98883.69;5042364;28;20061;-70
2023/12/29 07:19:52;;;;;;;0.68;0.00;;;;;;;1.47;83.98;98891.41;5039036;28;20654;-70
2023/12/29 07:22:19;;;;;;;3.83;0.10;;;;;;;1.49;84.27;98889.69;5040648;28;20077;-71
2023/12/29 07:24:46;;;;;;;0.80;0.10;;;;;;;1.50;83.88;98887.94;5041422;28;20107;-71
2023/12/29 07:27:13;;;;;;;3.42;0.10;;;;;;;1.51;84.15;98892.25;5040192;28;20057;-71
2023/12/29 07:29:40;;;;;;;0.85;0.10;;;;;;;1.52;84.10;98894.78;5044824;28;20076;-71
2023/12/29 07:32:09;;;;;;;1.75;0.17;;;;;;;1.52;84.19;98894.78;5039241;28;20506;-70
2023/12/29 07:34:36;;;;;;;0.20;0.00;;;;;;;1.53;84.37;98903.34;4989636;28;20180;-70
2023/12/29 07:37:03;;;;;;;3.60;0.70;;;;;;;1.54;84.36;98897.34;5041123;28;20075;-70
2023/12/29 07:39:30;;;;;;;0.90;0.20;;;;;;;1.55;84.26;98893.88;5038159;28;20122;-70
2023/12/29 07:41:57;;;;;;;5.13;0.20;;;;;;;1.56;84.20;98900.72;5039576;28;20506;-70
2023/12/29 07:44:23;;;;;;;1.15;0.20;;;;;;;1.56;84.06;98893.88;5036893;28;20080;-70
2023/12/29 07:46:50;;;;;;;5.15;0.60;;;;;;;1.57;84.07;98892.16;5041324;28;20122;-70
2023/12/29 07:49:19;;;;;;;2.58;0.50;;;;;;;1.58;84.09;98894.69;5033893;28;20081;-70
2023/12/29 07:51:48;;;;;;;0.90;0.15;;;;;;;1.59;84.44;98885.22;5041494;28;20110;-70
2023/12/29 07:54:15;;;;;;;2.00;0.15;;;;;;;1.60;84.37;98894.66;5041766;28;20072;-70
2023/12/29 07:56:42;;;;;;;0.82;0.25;;;;;;;1.58;84.36;98889.53;5038381;28;20059;-70
2023/12/29 07:59:09;;;;;;;2.28;0.30;;;;;;;1.61;84.52;98889.47;5041235;28;20124;-70
2023/12/29 08:01:36;;;;;;;5.68;0.30;;;;;;;1.62;84.33;98900.66;5043289;28;20502;-70
2023/12/29 08:04:04;;;;;;;1.48;0.50;;;;;;;1.62;84.43;98890.34;5036601;28;20056;-70
2023/12/29 08:06:32;;;;;;;2.75;0.47;;;;;;;1.63;84.43;98889.47;5037398;28;20156;-70
2023/12/29 08:08:59;;;;;;;6.50;0.40;;;;;;;1.64;84.46;98893.72;5035847;28;20095;-70
2023/12/29 08:11:26;;;;;;;1.73;0.30;;;;;;;1.64;84.62;98888.56;5040731;28;20136;-71
2023/12/29 08:13:53;;;;;;;4.32;0.45;;;;;;;1.65;84.83;98900.59;5037767;28;20168;-71
2023/12/29 08:16:19;;;;;;;3.95;0.40;;;;;;;1.67;84.58;98893.66;5040565;28;20476;-71
2023/12/29 08:18:47;;;;;;;9.90;0.85;;;;;;;1.68;84.86;98900.56;5035298;28;20119;-71
2023/12/29 08:21:20;;;;;;;5.40;0.30;;;;;;;1.65;84.90;98885.13;5039679;28;20128;-74
2023/12/29 08:23:49;;;;;;;2.55;0.30;;;;;;;1.72;85.15;98891.88;5039422;28;20077;-73
2023/12/29 08:26:16;;;;;;;4.93;0.90;;;;;;;1.64;84.46;98883.41;5040303;28;20108;-73
2023/12/29 08:28:45;;;;;;;10.98;1.42;;;;;;;1.75;85.08;98894.41;5038000;28;20140;-73
2023/12/29 08:31:12;;;;;;;3.03;0.30;;;;;;;1.74;85.09;98892.72;5042393;28;20045;-74
2023/12/29 08:33:39;;;;;;;3.78;0.30;;;;;;;1.78;84.79;98901.22;5037981;28;20143;-74
2023/12/29 08:36:07;;;;;;;5.32;0.50;;;;;;;1.80;85.15;98900.34;5036564;28;20163;-73
2023/12/29 08:38:34;;;;;;;8.25;0.60;;;;;;;1.76;85.16;98893.53;5041072;28;20483;-74
2023/12/29 08:41:02;;;;;;;9.07;0.32;;;;;;;1.84;85.19;98904.56;5036498;28;20499;-73
2023/12/29 08:43:29;;;;;;;5.88;0.40;;;;;;;1.85;84.98;98906.28;5035770;28;20061;-74
2023/12/29 08:45:56;;;;;;;9.90;0.82;;;;;;;1.86;85.25;98910.53;5037656;28;20157;-74
2023/12/29 08:48:25;;;;;;;3.45;1.00;;;;;;;1.89;85.40;98918.22;5040263;28;20899;-76
2023/12/29 08:50:51;;;;;;;6.78;0.40;;;;;;;1.88;85.33;98908.78;5037626;28;20076;-73
2023/12/29 08:53:18;;;;;;;8.35;0.63;;;;;;;1.92;85.33;98913.00;5036342;28;20072;-74
2023/12/29 08:55:45;;;;;;;5.90;0.40;;;;;;;1.94;85.46;98918.16;5040243;28;20544;-73
2023/12/29 08:58:14;;;;;;;5.47;0.50;;;;;;;1.96;85.44;98920.69;5037542;28;20088;-74
2023/12/29 09:00:41;;;;;;;4.75;0.57;;;;;;;1.98;85.43;98926.69;5036205;28;20045;-73
2023/12/29 09:03:08;;;;;;;3.22;0.40;;;;;;;1.99;85.48;98920.63;5039901;28;20064;-73
2023/12/29 09:05:35;;;;;;;2.17;0.30;;;;;;;2.00;85.47;98922.34;5039243;28;20073;-74
2023/12/29 09:08:02;;;;;;;4.45;0.52;;;;;;;2.02;85.48;98923.19;5034029;28;20091;-73
2023/12/29 09:10:28;;;;;;;4.15;0.98;;;;;;;2.04;85.08;98924.84;5038913;28;20077;-73
2023/12/29 09:12:55;;;;;;;8.75;0.50;;;;;;;2.05;85.65;98926.56;5038215;28;20089;-73
2023/12/29 09:15:24;;;;;;;3.35;0.28;;;;;;;2.06;85.69;98935.13;5040028;28;20128;-73
2023/12/29 09:17:51;;;;;;;3.28;0.30;;;;;;;2.09;85.61;98935.94;5042570;28;21738;-72
2023/12/29 09:20:18;;;;;;;4.60;0.30;;;;;;;2.12;85.64;98947.94;5040469;28;20040;-73
2023/12/29 09:22:45;;;;;;;4.82;0.40;;;;;;;2.12;85.72;98938.44;5041201;28;20529;-77
2023/12/29 09:25:12;;;;;;;6.72;0.60;;;;;;;2.14;85.57;98935.84;5040270;28;20084;-76
2023/12/29 09:27:39;;;;;;;4.28;0.40;;;;;;;2.16;85.62;98941.84;5041560;28;20707;-76
2023/12/29 09:30:07;;;;;;;3.88;0.22;;;;;;;2.17;85.56;98950.44;5040377;28;20123;-76
2023/12/29 09:32:36;;;;;;;7.82;0.47;;;;;;;2.21;85.65;98946.91;5048308;28;20088;-77
2023/12/29 09:35:03;;;;;;;6.72;1.05;;;;;;;2.23;85.68;98956.31;5047662;28;20125;-77
2023/12/29 09:37:30;;;;;;;2.70;0.68;;;;;;;2.24;85.70;98958.03;5048370;28;20045;-77
2023/12/29 09:39:57;;;;;;;4.03;0.30;;;;;;;2.22;85.64;98956.38;5043733;28;20098;-77
2023/12/29 09:42:29;;;;;;;4.97;0.20;;;;;;;2.26;85.63;98961.44;5051623;28;20550;-77
2023/12/29 09:44:56;;;;;;;6.60;0.32;;;;;;;2.27;85.48;98958.00;5045916;28;20084;-78
2023/12/29 09:47:25;;;;;;;5.25;0.55;;;;;;;2.29;85.55;98963.94;5050392;28;20041;-77
2023/12/29 09:49:55;;;;;;;3.45;0.20;;;;;;;2.30;85.64;98959.63;5042894;28;20136;-77
2023/12/29 09:52:22;;;;;;;5.88;0.47;;;;;;;2.30;85.85;98951.91;5048305;28;20538;-77
2023/12/29 09:54:51;;;;;;;4.88;0.40;;;;;;;2.32;85.83;98963.06;5043979;28;20120;-77
2023/12/29 09:57:19;;;;;;;4.13;0.30;;;;;;;2.33;85.73;98959.59;5044735;28;20100;-77
2023/12/29 09:59:46;;;;;;;8.30;0.85;;;;;;;2.34;85.59;98953.56;5048236;28;20127;-79
2023/12/29 10:02:16;;;;;;;2.22;0.30;;;;;;;2.35;85.65;98955.25;5051834;28;20465;-80
2023/12/29 10:04:43;;;;;;;2.05;0.55;;;;;;;2.35;85.57;98958.69;5050057;28;20628;-80
2023/12/29 10:07:19;;;;;;;7.30;0.80;;;;;;;2.38;85.60;98962.94;5043823;28;20124;-77
2023/12/29 10:09:49;;;;;;;2.47;0.40;;;;;;;2.40;85.48;98962.91;5043226;28;20068;-77
2023/12/29 10:12:17;;;;;;;6.40;0.70;;;;;;;2.40;85.93;98958.59;5040482;28;20041;-77
2023/12/29 10:14:49;;;;;;;8.18;0.25;;;;;;;2.42;85.62;98959.44;5048912;28;20068;-76
2023/12/29 10:17:29;;;;;;;7.40;0.28;;;;;;;2.39;85.48;98956.91;5043391;28;20053;-78
2023/12/29 10:20:08;;;;;;;7.70;0.30;;;;;;;2.43;85.15;98962.88;5047710;28;20047;-77
2023/12/29 10:22:45;;;;;;;4.28;0.20;;;;;;;2.45;85.49;98961.13;5049364;28;20072;-77
2023/12/29 10:25:13;;;;;;;9.27;0.57;;;;;;;2.46;85.50;98962.81;5042183;28;20135;-77
2023/12/29 10:27:41;;;;;;;7.78;0.50;;;;;;;2.47;85.67;98964.50;5041172;28;20037;-77
2023/12/29 10:30:12;;;;;;;9.45;0.40;;;;;;;2.48;85.64;98966.22;5046320;28;20040;-77
2023/12/29 10:32:39;;;;;;;7.07;1.23;;;;;;;2.49;85.62;98967.91;5046995;28;20052;-77
2023/12/29 10:35:10;;;;;;;11.25;0.50;;;;;;;2.49;85.60;98966.16;5014912;28;20171;-79
2023/12/29 10:37:39;;;;;;;11.68;0.47;;;;;;;2.50;85.77;98967.88;5035739;28;20090;-77
2023/12/29 10:40:07;;;;;;;6.35;0.63;;;;;;;2.51;85.79;98966.16;5040945;28;20133;-78
2023/12/29 10:42:34;;;;;;;6.22;0.32;;;;;;;2.51;85.69;98968.72;5039050;28;20056;-73
2023/12/29 10:45:09;;;;;;;5.30;0.40;;;;;;;2.54;85.64;98971.25;5040254;28;20132;-73
2023/12/29 10:47:36;;;;;;;7.37;0.40;;;;;;;2.54;85.82;98963.50;5040238;28;20132;-74
2023/12/29 10:50:04;;;;;;;8.57;0.60;;;;;;;2.55;85.60;98968.63;5046458;28;20055;-73
2023/12/29 10:52:33;;;;;;;6.57;0.30;;;;;;;2.57;85.55;98966.03;5039832;28;20049;-74
2023/12/29 10:55:09;;;;;;;9.45;0.88;;;;;;;2.57;85.65;98960.88;5041571;28;20106;-74
2023/12/29 10:57:37;;;;;;;10.65;0.38;;;;;;;2.58;85.47;98965.13;5040926;28;20077;-74
2023/12/29 11:00:07;;;;;;;7.55;0.50;;;;;;;2.59;85.56;98964.28;5042602;28;20511;-74
2023/12/29 11:02:34;;;;;;;3.55;0.32;;;;;;;2.60;85.50;98965.97;5039067;28;20053;-73
2023/12/29 11:05:06;;;;;;;8.70;0.80;;;;;;;2.62;85.52;98963.38;5042693;28;20127;-74
2023/12/29 11:07:35;;;;;;;13.32;1.58;;;;;;;2.62;85.65;98971.97;5043847;28;20128;-75
2023/12/29 11:10:04;;;;;;;15.50;1.60;;;;;;;2.62;85.35;98969.38;5041054;28;20525;-73
2023/12/29 11:12:33;;;;;;;15.55;0.70;;;;;;;2.64;85.56;98957.28;5042576;28;20045;-74
2023/12/29 11:15:02;;;;;;;17.40;1.13;;;;;;;2.65;85.46;98965.91;5038331;28;20140;-73
2023/12/29 11:17:32;;;;;;;11.40;0.73;;;;;;;2.65;85.50;98969.31;5042367;28;20129;-73
2023/12/29 11:20:00;;;;;;;8.10;0.70;;;;;;;2.66;85.60;98965.00;5041586;28;20041;-74
2023/12/29 11:22:30;;;;;;;5.72;0.40;;;;;;;2.67;85.36;98966.69;5042339;28;20045;-73
2023/12/29 11:24:59;;;;;;;5.30;0.55;;;;;;;2.68;85.51;98974.44;5037850;28;20053;-74
2023/12/29 11:27:29;;;;;;;11.50;1.55;;;;;;;2.68;85.45;98971.84;5042905;28;20041;-74
2023/12/29 11:29:59;;;;;;;10.25;1.65;;;;;;;2.71;85.46;98968.34;5040151;28;20048;-75
2023/12/29 11:32:33;;;;;;;8.05;1.67;;;;;;;2.72;85.38;98967.47;5040470;28;20044;-74
2023/12/29 11:35:11;;;;;;;15.88;0.60;;;;;;;2.72;85.44;98960.56;5040702;28;20091;-73
2023/12/29 11:37:53;;;;;;;7.63;0.40;;;;;;;2.74;85.44;98963.97;5039346;28;20132;-75
2023/12/29 11:40:25;;;;;;;9.20;0.70;;;;;;;2.72;85.28;98960.56;5037599;28;20060;-75
2023/12/29 11:42:57;;;;;;;7.38;1.30;;;;;;;2.75;85.37;98963.06;5043491;28;20119;-80
2023/12/29 11:45:29;;;;;;;10.07;1.15;;;;;;;2.77;85.37;98963.91;5040666;28;20481;-80